createdAt,value
2022-08-10T00:00:39.614Z,3.97
2022-08-10T00:03:09.983Z,3.17
2022-08-10T00:05:43.485Z,3.10
2022-08-10T00:08:24.043Z,3.13
2022-08-10T00:10:52.392Z,3.03
2022-08-10T00:13:20.072Z,3.37
2022-08-10T00:15:53.340Z,2.73
2022-08-10T00:18:35.395Z,3.10
2022-08-10T00:21:04.668Z,2.90
2022-08-10T00:23:32.287Z,3.37
2022-08-10T00:26:00.229Z,3.37
2022-08-10T00:28:27.838Z,3.40
2022-08-10T00:30:55.690Z,2.50
2022-08-10T00:33:24.986Z,2.80
2022-08-10T00:35:52.760Z,4.17
2022-08-10T00:38:20.423Z,3.40
2022-08-10T00:40:47.975Z,2.87
2022-08-10T00:43:15.618Z,3.20
2022-08-10T00:45:58.859Z,3.77
2022-08-10T00:48:30.006Z,3.03
2022-08-10T00:50:59.618Z,2.60
2022-08-10T00:53:27.901Z,3.40
2022-08-10T00:57:09.129Z,3.23
2022-08-10T00:58:43.460Z,2.80
2022-08-10T01:02:07.555Z,3.03
2022-08-10T01:04:54.234Z,3.00
2022-08-10T01:06:55.202Z,2.90
2022-08-10T01:09:29.253Z,3.13
2022-08-10T01:12:37.695Z,3.70
2022-08-10T01:14:53.056Z,2.83
2022-08-10T01:17:25.563Z,3.07
2022-08-10T01:20:30.292Z,2.57
2022-08-10T01:23:27.716Z,2.90
2022-08-10T01:26:10.818Z,3.27
2022-08-10T01:28:47.810Z,2.50
2022-08-10T01:31:21.261Z,3.43
2022-08-10T01:34:02.031Z,6.17
2022-08-10T01:36:32.889Z,5.70
2022-08-10T01:39:03.525Z,3.37
2022-08-10T01:41:41.808Z,2.77
2022-08-10T01:44:16.369Z,3.90
2022-08-10T01:46:56.964Z,3.20
2022-08-10T01:49:25.142Z,2.60
2022-08-10T01:51:54.519Z,2.97
2022-08-10T01:54:24.494Z,2.73
2022-08-10T01:56:54.785Z,3.03
2022-08-10T01:59:26.822Z,3.63
2022-08-10T02:01:56.925Z,3.10
2022-08-10T02:04:26.572Z,2.93
2022-08-10T02:06:55.246Z,3.03
2022-08-10T02:09:26.665Z,2.77
2022-08-10T02:12:07.066Z,4.10
2022-08-10T02:14:40.965Z,2.80
2022-08-10T02:17:59.220Z,3.27
2022-08-10T02:20:04.113Z,3.60
2022-08-10T02:22:37.598Z,3.50
2022-08-10T02:25:08.809Z,3.37
2022-08-10T02:27:37.249Z,3.30
2022-08-10T02:30:06.915Z,3.53
2022-08-10T02:32:52.780Z,3.10
2022-08-10T02:35:23.650Z,3.00
2022-08-10T02:37:56.468Z,3.40
2022-08-10T02:45:01.817Z,3.03
2022-08-10T02:45:24.328Z,3.23
2022-08-10T02:46:12.352Z,3.00
2022-08-10T02:48:43.883Z,3.60
2022-08-10T02:51:17.098Z,3.73
2022-08-10T02:53:56.331Z,3.70
2022-08-10T02:56:29.701Z,3.70
2022-08-10T02:58:59.495Z,3.43
2022-08-10T03:01:32.535Z,5.63
2022-08-10T03:04:03.702Z,4.90
2022-08-10T03:06:35.856Z,3.50
2022-08-10T03:09:05.051Z,3.73
2022-08-10T03:12:35.693Z,3.70
2022-08-10T03:14:22.943Z,3.33
2022-08-10T03:16:51.835Z,4.13
2022-08-10T03:20:34.537Z,3.37
2022-08-10T03:22:09.577Z,3.80
2022-08-10T03:24:38.037Z,3.80
2022-08-10T03:27:06.344Z,3.50
2022-08-10T03:30:29.732Z,4.60
2022-08-10T03:32:23.189Z,3.90
2022-08-10T03:34:52.548Z,3.43
2022-08-10T03:37:20.632Z,3.53
2022-08-10T03:39:48.300Z,3.53
2022-08-10T03:42:16.405Z,3.70
2022-08-10T03:44:49.877Z,3.67
2022-08-10T03:47:18.952Z,3.43
2022-08-10T03:49:48.035Z,3.90
2022-08-10T03:52:18.164Z,4.10
2022-08-10T03:54:46.289Z,4.13
2022-08-10T03:57:14.636Z,3.70
2022-08-10T03:59:42.267Z,3.63
2022-08-10T04:02:41.768Z,4.50
2022-08-10T04:04:58.017Z,4.40
2022-08-10T04:07:27.545Z,3.80
2022-08-10T04:09:56.481Z,3.83
2022-08-10T04:12:26.656Z,3.83
2022-08-10T04:14:54.361Z,4.20
2022-08-10T04:18:04.298Z,4.50
2022-08-10T04:20:17.898Z,3.87
2022-08-10T04:22:48.258Z,4.50
2022-08-10T04:25:16.329Z,4.03
2022-08-10T04:27:44.424Z,4.50
2022-08-10T04:30:12.578Z,3.90
2022-08-10T04:32:41.179Z,4.50
2022-08-10T04:35:10.698Z,5.20
2022-08-10T04:37:46.705Z,4.47
2022-08-10T04:40:29.422Z,4.10
2022-08-10T04:43:07.285Z,4.70
2022-08-10T04:45:49.322Z,4.80
2022-08-10T04:48:43.270Z,4.60
2022-08-10T04:51:11.200Z,4.80
2022-08-10T04:54:05.722Z,4.50
2022-08-10T04:56:37.003Z,4.40
2022-08-10T04:59:05.725Z,4.30
2022-08-10T05:02:21.623Z,4.70
2022-08-10T05:04:34.010Z,4.17
2022-08-10T05:07:10.684Z,4.80
2022-08-10T05:10:01.154Z,4.70
2022-08-10T05:12:28.102Z,4.93
2022-08-10T05:14:55.840Z,5.00
2022-08-10T05:17:24.145Z,5.03
2022-08-10T05:20:04.773Z,5.27
2022-08-10T05:22:35.667Z,4.33
2022-08-10T05:25:04.300Z,4.90
2022-08-10T05:27:33.596Z,4.57
2022-08-10T05:30:03.306Z,5.10
2022-08-10T05:32:31.664Z,4.00
2022-08-10T05:34:59.425Z,4.00
2022-08-10T05:38:10.596Z,3.90
2022-08-10T05:40:15.159Z,4.60
2022-08-10T05:42:44.217Z,4.43
2022-08-10T05:45:18.731Z,2.90
2022-08-10T05:48:55.138Z,3.40
2022-08-10T05:50:34.676Z,2.73
2022-08-10T05:53:39.070Z,3.40
2022-08-10T05:55:50.084Z,2.90
2022-08-10T05:58:19.373Z,3.37
2022-08-10T06:00:53.983Z,3.23
2022-08-10T06:03:25.798Z,3.27
2022-08-10T06:05:55.180Z,2.90
2022-08-10T06:08:24.918Z,2.83
2022-08-10T06:12:27.685Z,2.70
2022-08-10T06:14:12.997Z,3.53
2022-08-10T06:16:43.145Z,2.87
2022-08-10T06:19:11.890Z,2.63
2022-08-10T06:21:46.782Z,2.43
2022-08-10T06:24:30.283Z,2.70
2022-08-10T06:26:58.813Z,2.70
2022-08-10T06:29:29.588Z,2.73
2022-08-10T06:31:58.141Z,2.77
2022-08-10T06:34:28.530Z,2.60
2022-08-10T06:36:58.789Z,3.43
2022-08-10T06:39:36.155Z,2.40
2022-08-10T06:42:14.729Z,2.10
2022-08-10T06:44:49.594Z,3.10
2022-08-10T06:47:23.228Z,2.53
2022-08-10T06:49:53.607Z,2.80
2022-08-10T06:52:28.964Z,2.70
2022-08-10T06:54:58.593Z,2.20
2022-08-10T06:57:29.490Z,2.20
2022-08-10T07:00:01.030Z,2.50
2022-08-10T07:02:36.852Z,2.83
2022-08-10T07:05:06.895Z,2.57
2022-08-10T07:07:38.192Z,2.30
2022-08-10T07:10:06.903Z,2.30
2022-08-10T07:12:36.356Z,2.40
2022-08-10T07:15:08.656Z,2.10
2022-08-10T07:17:39.457Z,2.40
2022-08-10T07:20:09.791Z,2.00
2022-08-10T07:23:01.545Z,1.70
2022-08-10T07:25:27.910Z,2.10
2022-08-10T07:27:58.910Z,2.20
2022-08-10T07:30:31.871Z,2.83
2022-08-10T07:33:01.760Z,2.07
2022-08-10T07:35:36.816Z,2.30
2022-08-10T07:38:12.925Z,2.07
2022-08-10T07:40:41.788Z,2.00
2022-08-10T07:43:10.653Z,3.00
2022-08-10T07:45:40.145Z,1.70
2022-08-10T07:48:11.164Z,1.80
2022-08-10T07:50:40.387Z,2.10
2022-08-10T07:53:10.666Z,2.17
2022-08-10T07:56:07.521Z,1.73
2022-08-10T07:58:32.179Z,2.50
2022-08-10T08:01:01.841Z,1.43
2022-08-10T08:03:30.806Z,2.10
2022-08-10T08:06:05.430Z,2.13
2022-08-10T08:08:40.142Z,2.63
2022-08-10T08:11:08.699Z,1.40
2022-08-10T08:13:37.211Z,2.40
2022-08-10T08:16:18.861Z,2.03
2022-08-10T08:19:03.932Z,1.83
2022-08-10T08:24:07.519Z,1.43
2022-08-10T08:24:32.749Z,1.47
2022-08-10T08:27:03.396Z,1.60
2022-08-10T08:29:34.520Z,1.67
2022-08-10T08:32:04.526Z,1.57
2022-08-10T08:38:26.475Z,2.00
2022-08-10T08:40:06.463Z,1.77
2022-08-10T08:42:53.160Z,1.50
2022-08-10T08:45:25.209Z,2.53
2022-08-10T08:48:26.480Z,1.50
2022-08-10T08:51:03.685Z,3.47
2022-08-10T08:54:01.066Z,1.67
2022-08-10T08:56:31.181Z,1.70
2022-08-10T08:59:19.102Z,1.60
2022-08-10T09:01:55.492Z,2.40
2022-08-10T09:04:38.728Z,1.50
2022-08-10T09:07:59.280Z,1.40
2022-08-10T09:10:14.188Z,1.50
2022-08-10T09:12:50.385Z,1.87
2022-08-10T09:15:40.743Z,1.33
2022-08-10T09:18:15.108Z,1.50
2022-08-10T09:20:48.505Z,1.70
2022-08-10T09:24:04.073Z,1.03
2022-08-10T09:26:18.531Z,1.10
2022-08-10T09:29:11.877Z,0.80
2022-08-10T09:33:06.178Z,1.10
2022-08-10T09:36:19.797Z,1.27
2022-08-10T09:37:42.581Z,1.00
2022-08-10T09:40:58.919Z,1.23
2022-08-10T09:43:25.224Z,1.03
2022-08-10T09:46:00.531Z,1.60
2022-08-10T09:48:32.963Z,1.00
2022-08-10T09:51:44.304Z,1.20
2022-08-10T09:54:03.815Z,1.10
2022-08-10T09:56:37.859Z,0.80
2022-08-10T10:00:00.053Z,1.10
2022-08-10T10:02:20.132Z,0.90
2022-08-10T10:04:52.308Z,0.80
2022-08-10T10:07:24.795Z,1.50
2022-08-10T10:09:59.440Z,1.43
2022-08-10T10:12:31.974Z,1.00
2022-08-10T10:15:24.921Z,1.10
2022-08-10T10:18:28.442Z,0.83
2022-08-10T10:21:02.517Z,1.10
2022-08-10T10:23:42.209Z,1.00
2022-08-10T10:26:20.730Z,0.87
2022-08-10T10:31:58.435Z,1.50
2022-08-10T10:34:33.966Z,1.00
2022-08-10T10:37:02.501Z,1.43
2022-08-10T10:39:30.695Z,1.13
2022-08-10T10:42:23.195Z,1.00
2022-08-10T10:45:05.500Z,1.20
2022-08-10T10:47:50.498Z,0.97
2022-08-10T10:50:23.025Z,1.23
2022-08-10T10:52:59.564Z,0.80
2022-08-10T10:55:34.214Z,1.17
2022-08-10T10:58:28.627Z,0.87
2022-08-10T11:01:03.304Z,1.13
2022-08-10T11:03:40.244Z,1.10
2022-08-10T11:06:16.244Z,1.10
2022-08-10T11:08:47.380Z,1.17
2022-08-10T11:12:01.624Z,0.90
2022-08-10T11:14:25.985Z,1.00
2022-08-10T11:17:02.606Z,1.10
2022-08-10T11:20:02.054Z,1.07
2022-08-10T11:22:31.406Z,1.00
2022-08-10T11:25:11.178Z,1.33
2022-08-10T11:27:44.846Z,0.97
2022-08-10T11:30:15.132Z,0.93
2022-08-10T11:33:02.575Z,0.87
2022-08-10T11:35:35.638Z,1.20
2022-08-10T11:38:31.163Z,1.10
2022-08-10T11:41:12.685Z,1.00
2022-08-10T11:43:58.124Z,1.60
2022-08-10T11:46:31.756Z,0.73
2022-08-10T11:49:05.893Z,1.03
2022-08-10T11:51:40.288Z,1.10
2022-08-10T11:54:10.264Z,1.03
2022-08-10T11:56:43.980Z,0.97
2022-08-10T11:59:29.866Z,0.80
2022-08-10T12:01:59.084Z,1.03
2022-08-10T12:04:28.744Z,0.80
2022-08-10T12:07:00.464Z,1.00
2022-08-10T12:10:09.686Z,0.90
2022-08-10T12:12:17.154Z,0.80
2022-08-10T12:14:51.875Z,1.17
2022-08-10T12:17:25.840Z,1.13
2022-08-10T12:20:03.417Z,0.87
2022-08-10T12:22:35.793Z,1.00
2022-08-10T12:25:06.930Z,1.40
2022-08-10T12:27:39.962Z,0.90
2022-08-10T12:30:09.803Z,0.90
2022-08-10T12:32:44.933Z,1.00
2022-08-10T12:35:21.952Z,0.87
2022-08-10T12:38:04.787Z,0.80
2022-08-10T12:40:36.501Z,0.70
2022-08-10T12:43:12.973Z,1.20
2022-08-10T12:46:06.998Z,0.90
2022-08-10T12:48:40.063Z,0.80
2022-08-10T12:51:12.189Z,1.00
2022-08-10T12:53:48.337Z,1.00
2022-08-10T12:56:25.700Z,1.20
2022-08-10T12:58:57.028Z,1.00
2022-08-10T13:02:06.934Z,1.10
2022-08-10T13:04:29.153Z,1.40
2022-08-10T13:06:58.621Z,1.07
2022-08-10T13:09:27.279Z,0.93
2022-08-10T13:12:38.956Z,0.90
2022-08-10T13:14:49.921Z,0.90
2022-08-10T13:17:23.741Z,0.87
2022-08-10T13:19:55.707Z,0.97
2022-08-10T13:22:27.821Z,1.00
2022-08-10T13:24:56.886Z,1.07
2022-08-10T13:28:02.904Z,1.30
2022-08-10T13:30:15.908Z,1.47
2022-08-10T13:32:49.399Z,1.50
2022-08-10T13:35:18.965Z,1.10
2022-08-10T13:37:48.096Z,1.27
2022-08-10T13:40:17.776Z,1.47
2022-08-10T13:42:46.194Z,1.20
2022-08-10T13:45:16.688Z,1.13
2022-08-10T13:47:48.392Z,0.90
2022-08-10T13:50:35.588Z,1.50
2022-08-10T13:53:13.885Z,1.87
2022-08-10T13:55:47.006Z,1.10
2022-08-10T13:58:24.994Z,1.47
2022-08-10T14:00:53.540Z,1.10
2022-08-10T14:03:21.591Z,1.10
2022-08-10T14:05:53.379Z,1.90
2022-08-10T14:08:24.309Z,1.30
2022-08-10T14:11:08.456Z,1.50
2022-08-10T14:13:43.482Z,1.27
2022-08-10T14:16:12.027Z,1.10
2022-08-10T14:18:42.141Z,1.00
2022-08-10T14:21:11.657Z,1.10
2022-08-10T14:23:42.968Z,1.20
2022-08-10T14:26:23.151Z,1.33
2022-08-10T14:28:54.683Z,1.10
2022-08-10T14:31:26.906Z,1.20
2022-08-10T14:33:58.609Z,1.57
2022-08-10T14:36:34.438Z,1.30
2022-08-10T14:39:03.838Z,1.10
2022-08-10T14:42:03.156Z,1.50
2022-08-10T14:44:21.970Z,1.33
2022-08-10T14:46:54.427Z,1.30
2022-08-10T14:49:27.081Z,1.30
2022-08-10T14:52:02.533Z,1.30
2022-08-10T14:54:32.240Z,1.43
2022-08-10T14:57:11.242Z,1.20
2022-08-10T15:00:24.987Z,1.37
2022-08-10T15:02:40.953Z,1.30
2022-08-10T15:05:17.739Z,1.30
2022-08-10T15:07:59.151Z,1.37
2022-08-10T15:10:28.546Z,1.70
2022-08-10T15:12:58.681Z,1.43
2022-08-10T15:15:28.800Z,1.20
2022-08-10T15:17:58.156Z,1.20
2022-08-10T15:20:27.880Z,1.43
2022-08-10T15:23:02.385Z,1.00
2022-08-10T15:25:30.687Z,2.10
2022-08-10T15:28:06.672Z,1.30
2022-08-10T15:30:39.612Z,1.70
2022-08-10T15:34:02.396Z,1.50
2022-08-10T15:36:35.009Z,1.20
2022-08-10T15:39:15.010Z,1.93
2022-08-10T15:41:57.554Z,1.43
2022-08-10T15:44:40.377Z,1.40
2022-08-10T15:47:17.008Z,1.20
2022-08-10T15:49:51.748Z,1.50
2022-08-10T15:52:39.948Z,2.33
2022-08-10T15:55:43.681Z,1.20
2022-08-10T15:58:07.382Z,1.30
2022-08-10T16:00:38.242Z,1.47
2022-08-10T16:03:13.165Z,1.50
2022-08-10T16:06:02.565Z,1.90
2022-08-10T16:08:56.075Z,1.60
2022-08-10T16:11:37.436Z,1.60
2022-08-10T16:14:13.304Z,1.30
2022-08-10T16:16:41.852Z,1.50
2022-08-10T16:19:22.422Z,1.50
2022-08-10T16:21:57.165Z,1.47
2022-08-10T16:24:25.202Z,1.47
2022-08-10T16:26:54.635Z,1.17
2022-08-10T16:29:24.063Z,1.23
2022-08-10T16:31:54.293Z,1.47
2022-08-10T16:34:23.907Z,1.20
2022-08-10T16:36:54.029Z,1.60
2022-08-10T16:39:58.416Z,1.57
2022-08-10T16:42:19.282Z,1.57
2022-08-10T16:44:52.635Z,1.43
2022-08-10T16:47:27.293Z,1.30
2022-08-10T16:49:56.483Z,1.70
2022-08-10T16:52:25.171Z,1.87
2022-08-10T16:54:54.599Z,1.60
2022-08-10T16:57:23.778Z,2.10
2022-08-10T16:59:54.604Z,1.50
2022-08-10T17:02:22.510Z,1.67
2022-08-10T17:04:50.273Z,1.80
2022-08-10T17:07:19.252Z,1.73
2022-08-10T17:10:07.789Z,1.77
2022-08-10T17:12:40.278Z,1.63
2022-08-10T17:15:11.597Z,1.60
2022-08-10T17:17:42.834Z,1.40
2022-08-10T17:20:31.387Z,2.00
2022-08-10T17:23:03.355Z,1.80
2022-08-10T17:25:46.380Z,1.50
2022-08-10T17:28:34.957Z,1.37
2022-08-10T17:31:38.117Z,1.57
2022-08-10T17:34:00.002Z,2.00
2022-08-10T17:36:31.101Z,1.50
2022-08-10T17:38:59.616Z,1.83
2022-08-10T17:41:30.850Z,1.70
2022-08-10T17:44:03.152Z,1.80
2022-08-10T17:46:34.461Z,1.60
2022-08-10T17:49:07.344Z,1.87
2022-08-10T17:51:35.486Z,2.00
2022-08-10T17:54:08.876Z,1.70
2022-08-10T17:56:37.752Z,1.90
2022-08-10T17:59:16.775Z,2.10
2022-08-10T18:02:01.447Z,1.53
2022-08-10T18:04:41.572Z,1.20
2022-08-10T18:07:11.413Z,1.60
2022-08-10T18:09:41.968Z,2.33
2022-08-10T18:12:17.615Z,1.20
2022-08-10T18:14:49.405Z,1.80
2022-08-10T18:17:19.843Z,1.83
2022-08-10T18:19:53.038Z,1.67
2022-08-10T18:22:21.617Z,1.97
2022-08-10T18:24:50.453Z,1.90
2022-08-10T18:27:19.428Z,2.80
2022-08-10T18:29:50.865Z,1.60
2022-08-10T18:32:19.954Z,1.50
2022-08-10T18:34:48.773Z,2.47
2022-08-10T18:37:20.892Z,2.03
2022-08-10T18:39:52.245Z,2.40
2022-08-10T18:42:37.988Z,2.10
2022-08-10T18:45:10.147Z,2.00
2022-08-10T18:47:59.164Z,2.13
2022-08-10T18:50:30.077Z,2.10
2022-08-10T18:53:01.430Z,2.70
2022-08-10T18:55:35.538Z,2.10
2022-08-10T18:58:44.726Z,1.97
2022-08-10T19:01:42.986Z,2.40
2022-08-10T19:04:19.435Z,2.10
2022-08-10T19:07:06.094Z,1.67
2022-08-10T19:09:53.352Z,2.43
2022-08-10T19:12:40.842Z,1.70
2022-08-10T19:15:26.983Z,1.90
2022-08-10T19:18:07.998Z,1.83
2022-08-10T19:20:40.574Z,2.20
2022-08-10T19:23:19.452Z,2.00
2022-08-10T19:26:42.128Z,2.53
2022-08-10T19:28:45.371Z,2.40
2022-08-10T19:31:16.408Z,2.77
2022-08-10T19:33:52.471Z,2.63
2022-08-10T19:36:46.116Z,2.30
2022-08-10T19:39:19.079Z,2.20
2022-08-10T19:41:54.504Z,2.10
2022-08-10T19:44:28.621Z,1.90
2022-08-10T19:47:00.964Z,2.40
2022-08-10T19:49:40.076Z,2.00
2022-08-10T19:52:11.834Z,2.13
2022-08-10T19:54:46.873Z,2.70
2022-08-10T19:57:26.651Z,3.17
2022-08-10T20:00:17.407Z,2.10
2022-08-10T20:02:59.111Z,2.17
2022-08-10T20:05:32.971Z,2.13
2022-08-10T20:08:06.722Z,1.70
2022-08-10T20:10:38.677Z,1.80
2022-08-10T20:13:10.302Z,2.10
2022-08-10T20:15:42.151Z,2.30
2022-08-10T20:18:14.232Z,1.93
2022-08-10T20:20:48.493Z,1.77
2022-08-10T20:23:18.710Z,1.93
2022-08-10T20:25:48.959Z,1.97
2022-08-10T20:28:20.703Z,1.77
2022-08-10T20:30:52.600Z,1.93
2022-08-10T20:33:27.430Z,2.27
2022-08-10T20:36:02.309Z,1.80
2022-08-10T20:38:34.759Z,2.07
2022-08-10T20:41:09.804Z,2.33
2022-08-10T20:43:45.559Z,2.00
2022-08-10T20:46:19.737Z,2.40
2022-08-10T20:48:50.853Z,2.13
2022-08-10T20:51:23.701Z,1.70
2022-08-10T20:54:11.878Z,2.57
2022-08-10T20:56:44.521Z,2.23
2022-08-10T20:59:33.265Z,2.43
2022-08-10T21:02:12.690Z,2.10
2022-08-10T21:04:51.545Z,2.23
2022-08-10T21:08:01.162Z,2.20
2022-08-10T21:10:38.094Z,3.60
2022-08-10T21:13:18.061Z,2.40
2022-08-10T21:15:55.619Z,2.43
2022-08-10T21:18:35.479Z,2.60
2022-08-10T21:24:26.386Z,3.27
2022-08-10T21:25:41.746Z,2.63
2022-08-10T21:27:02.194Z,2.30
2022-08-10T21:29:42.091Z,2.33
2022-08-10T21:32:39.163Z,2.53
2022-08-10T21:35:20.108Z,2.17
2022-08-10T21:38:07.860Z,2.20
2022-08-10T21:40:44.139Z,2.47
2022-08-10T21:43:58.932Z,2.50
2022-08-10T21:46:59.003Z,2.27
2022-08-10T21:49:57.462Z,2.27
2022-08-10T21:52:54.201Z,2.13
2022-08-10T21:55:57.630Z,2.67
2022-08-10T21:59:11.803Z,2.90
2022-08-10T22:02:03.588Z,2.50
2022-08-10T22:04:49.258Z,2.20
2022-08-10T22:07:36.845Z,3.17
2022-08-10T22:10:22.915Z,2.67
2022-08-10T22:13:12.145Z,2.60
2022-08-10T22:16:10.891Z,3.43
2022-08-10T22:19:02.980Z,2.43
2022-08-10T22:21:56.702Z,2.53
2022-08-10T22:24:48.626Z,2.73
2022-08-10T22:31:27.191Z,2.90
2022-08-10T22:31:28.037Z,2.53
2022-08-10T22:34:13.569Z,2.10
2022-08-10T22:37:14.600Z,3.10
2022-08-10T22:40:13.793Z,2.40
2022-08-10T22:43:11.204Z,2.60
2022-08-10T22:46:04.914Z,2.60
2022-08-10T22:48:58.598Z,2.53
2022-08-10T22:51:33.383Z,2.73
2022-08-10T22:54:31.815Z,2.50
2022-08-10T22:57:18.602Z,2.50
2022-08-10T22:59:46.421Z,2.13
2022-08-10T23:02:24.638Z,2.70
2022-08-10T23:04:54.562Z,2.43
2022-08-10T23:07:26.634Z,2.60
2022-08-10T23:09:59.074Z,2.97
2022-08-10T23:12:31.257Z,2.40
2022-08-10T23:15:18.214Z,2.70
2022-08-10T23:18:08.075Z,2.50
2022-08-10T23:20:38.069Z,3.37
2022-08-10T23:23:10.124Z,3.03
2022-08-10T23:25:56.186Z,3.03
2022-08-10T23:28:58.398Z,3.03
2022-08-10T23:31:14.623Z,3.10
2022-08-10T23:33:42.860Z,2.87
2022-08-10T23:36:34.085Z,3.17
2022-08-10T23:39:25.593Z,3.20
2022-08-10T23:41:55.982Z,2.83
2022-08-10T23:44:23.807Z,2.57
2022-08-10T23:46:52.685Z,2.33
2022-08-10T23:49:21.133Z,3.20
2022-08-10T23:51:55.719Z,2.40
2022-08-10T23:54:26.725Z,3.07
2022-08-10T23:57:01.253Z,3.20
2022-08-10T23:59:32.163Z,2.73
